Time;durP1;ratioP1;P1;durP2;ratioP2;P2;SDS_P1;SDS_P2;PMS_P1;PMS_P2;Temp;Humidity;BMP_temperature;BMP_pressure;BME280_temperature;BME280_humidity;BME280_pressure;Samples;Min_cycle;Max_cycle;Signal;HPM_P1;HPM_P2
2021/01/14 00:00:24;;;;;;;37.00;31.67;;;;;;;3.52;62.09;100152.22;4934655;28;96670;-73
2021/01/14 00:02:50;;;;;;;42.42;32.00;;;;;;;3.56;62.19;100151.25;4932769;28;98498;-73
2021/01/14 00:05:16;;;;;;;39.95;30.27;;;;;;;3.60;61.95;100137.41;4935118;28;98649;-72
2021/01/14 00:07:43;;;;;;;46.00;31.95;;;;;;;3.63;61.71;100132.19;4935721;28;96553;-73
2021/01/14 00:10:11;;;;;;;39.88;31.85;;;;;;;3.54;62.12;100134.13;4936517;28;97218;-72
2021/01/14 00:12:37;;;;;;;38.45;31.10;;;;;;;3.51;62.55;100124.72;4935273;28;98522;-73
2021/01/14 00:15:05;;;;;;;44.60;31.80;;;;;;;3.51;62.76;100118.72;4935521;28;98689;-72
2021/01/14 00:17:32;;;;;;;39.65;32.08;;;;;;;3.44;63.09;100117.19;4936389;28;96667;-73
2021/01/14 00:19:58;;;;;;;39.03;31.50;;;;;;;3.54;62.54;100103.22;4935879;28;96708;-73
2021/01/14 00:22:24;;;;;;;37.90;32.60;;;;;;;3.64;62.28;100090.06;4934905;28;98645;-73
2021/01/14 00:24:51;;;;;;;39.72;30.23;;;;;;;3.68;62.06;100106.31;4936066;28;98645;-73
2021/01/14 00:27:17;;;;;;;38.17;32.00;;;;;;;3.52;62.79;100090.38;4935399;28;96501;-72
2021/01/14 00:29:43;;;;;;;37.53;31.85;;;;;;;3.65;62.31;100091.75;4935864;28;96994;-71
2021/01/14 00:32:10;;;;;;;39.22;31.75;;;;;;;3.67;62.06;100082.28;4933900;28;98810;-71
2021/01/14 00:34:37;;;;;;;37.92;30.60;;;;;;;3.74;61.83;100064.06;4935829;28;98468;-71
2021/01/14 00:39:58;;;;;;;37.50;29.30;;;;;;;3.73;61.80;100058.06;4935266;28;96585;-71
2021/01/14 00:42:24;;;;;;;38.80;30.95;;;;;;;3.51;62.41;100050.00;4935519;28;98420;-71
2021/01/14 00:44:50;;;;;;;37.00;29.13;;;;;;;3.54;62.55;100047.34;4935233;28;98611;-71
2021/01/14 00:47:16;;;;;;;33.47;29.75;;;;;;;3.49;62.39;100054.34;4933283;28;96462;-71
2021/01/14 00:49:43;;;;;;;34.42;28.48;;;;;;;3.54;62.13;100057.66;4935016;28;96879;-72
2021/01/14 00:52:10;;;;;;;39.97;27.88;;;;;;;3.61;61.95;100053.19;4933693;28;98701;-71
2021/01/14 00:54:40;;;;;;;37.83;27.67;;;;;;;3.59;62.00;100049.81;4934513;28;98614;-72
2021/01/14 00:57:09;;;;;;;37.17;30.60;;;;;;;3.59;61.87;100055.81;4928017;28;96788;-71
2021/01/14 00:59:36;;;;;;;35.47;27.73;;;;;;;3.62;61.70;100049.72;4913742;28;96709;-72
2021/01/14 01:02:03;;;;;;;36.33;29.55;;;;;;;3.53;61.95;100045.66;4922863;28;98675;-71
2021/01/14 01:04:30;;;;;;;36.70;27.92;;;;;;;3.58;61.63;100028.38;4933126;28;98512;-71
2021/01/14 01:06:56;;;;;;;33.92;30.13;;;;;;;3.58;61.42;100030.09;4932992;28;96808;-71
2021/01/14 01:09:23;;;;;;;36.50;28.63;;;;;;;3.26;62.65;100028.28;4924990;28;96644;-72
2021/01/14 01:11:49;;;;;;;29.75;26.25;;;;;;;3.41;62.15;100033.09;4913627;28;98536;-72
2021/01/14 01:14:16;;;;;;;34.08;27.45;;;;;;;3.28;62.60;100008.47;4920198;28;99707;-72
2021/01/14 01:16:42;;;;;;;31.05;25.35;;;;;;;3.32;62.52;99994.66;4933109;28;97068;-71
2021/01/14 01:19:09;;;;;;;32.95;26.60;;;;;;;3.36;62.21;100004.00;4931422;28;97017;-71
2021/01/14 01:21:35;;;;;;;33.53;27.02;;;;;;;3.19;62.96;100006.97;4914363;28;98680;-71
2021/01/14 01:24:01;;;;;;;31.67;25.52;;;;;;;3.11;63.00;100011.47;4913851;28;98507;-71
2021/01/14 01:26:28;;;;;;;39.47;29.35;;;;;;;3.15;63.06;100018.25;4914532;28;96786;-71
2021/01/14 01:28:54;;;;;;;36.50;30.33;;;;;;;2.98;63.54;100026.31;4914256;28;97265;-70
2021/01/14 01:31:20;;;;;;;34.47;28.25;;;;;;;3.03;63.78;100011.63;4931194;28;98484;-70
2021/01/14 01:33:47;;;;;;;32.45;28.15;;;;;;;3.15;63.22;100010.53;4933944;28;98824;-70
2021/01/14 01:36:13;;;;;;;34.90;27.88;;;;;;;3.12;63.14;100024.28;4930558;28;96526;-70
2021/01/14 01:38:40;;;;;;;37.50;26.98;;;;;;;3.15;62.63;100028.53;4933666;28;96745;-70
2021/01/14 01:41:07;;;;;;;31.70;26.30;;;;;;;3.03;63.60;100021.91;4932860;28;98606;-70
2021/01/14 01:43:33;;;;;;;38.78;28.92;;;;;;;2.99;63.26;100012.59;4925232;28;98400;-70
2021/01/14 01:46:00;;;;;;;34.95;26.85;;;;;;;3.00;63.48;100009.13;4932185;28;96516;-70
2021/01/14 01:48:27;;;;;;;33.63;28.20;;;;;;;2.94;63.53;100008.44;4931920;28;96805;-70
2021/01/14 01:50:58;;;;;;;32.28;24.80;;;;;;;3.21;62.30;99997.50;4932055;28;98651;-70
2021/01/14 01:53:24;;;;;;;28.60;22.80;;;;;;;3.19;61.96;99998.38;4932787;28;98369;-70
2021/01/14 01:55:51;;;;;;;27.33;22.38;;;;;;;3.19;61.78;99999.22;4915327;28;97205;-70
2021/01/14 01:58:21;;;;;;;29.80;23.42;;;;;;;3.29;60.84;100005.88;4932033;28;96830;-70
2021/01/14 02:00:51;;;;;;;30.63;25.17;;;;;;;3.24;61.25;100004.28;4926181;28;98631;-70
2021/01/14 02:03:17;;;;;;;33.10;25.10;;;;;;;3.03;62.35;99991.03;4913966;28;98689;-70
2021/01/14 02:05:44;;;;;;;28.88;21.73;;;;;;;2.97;62.58;99985.19;4913240;28;96617;-70
2021/01/14 02:08:36;;;;;;;30.63;24.23;;;;;;;2.93;62.66;99971.53;4915566;28;96642;-70
2021/01/14 02:11:05;;;;;;;31.40;25.20;;;;;;;2.91;62.86;99968.13;4909109;28;98646;-70
2021/01/14 02:13:35;;;;;;;30.48;24.83;;;;;;;3.05;62.34;99967.84;4913416;28;97452;-70
2021/01/14 02:16:03;;;;;;;29.33;24.13;;;;;;;2.92;63.16;99961.25;4913318;28;96558;-70
2021/01/14 02:18:29;;;;;;;36.40;25.17;;;;;;;2.89;62.87;99955.31;4926214;28;98743;-70
2021/01/14 02:21:00;;;;;;;32.85;24.77;;;;;;;2.99;62.50;99952.53;4925605;28;99470;-70
2021/01/14 02:23:41;;;;;;;26.90;23.10;;;;;;;2.89;62.35;99950.16;4910770;28;98736;-70
2021/01/14 02:26:19;;;;;;;31.42;23.02;;;;;;;3.09;61.78;99947.13;4913020;28;99389;-70
2021/01/14 02:28:46;;;;;;;36.97;25.35;;;;;;;3.11;61.65;99945.34;4932079;28;97070;-70
2021/01/14 02:31:13;;;;;;;26.92;22.42;;;;;;;2.85;63.10;99939.97;4931709;28;98607;-70
2021/01/14 02:33:39;;;;;;;28.85;23.27;;;;;;;3.02;62.05;99937.00;4929921;28;98465;-70
2021/01/14 02:36:06;;;;;;;30.63;21.98;;;;;;;2.94;62.32;99936.34;4933326;28;96730;-70
2021/01/14 02:38:32;;;;;;;30.48;23.55;;;;;;;3.13;61.76;99932.41;4922207;28;96857;-70
2021/01/14 02:40:59;;;;;;;29.45;22.80;;;;;;;2.72;63.32;99921.41;4913819;28;98578;-70
2021/01/14 02:43:25;;;;;;;31.33;21.15;;;;;;;2.98;62.57;99918.19;4926185;28;98404;-69
2021/01/14 02:45:52;;;;;;;29.40;24.33;;;;;;;3.07;61.78;99917.97;4933148;28;96514;-70
2021/01/14 02:48:46;;;;;;;26.85;22.95;;;;;;;2.93;62.40;99914.91;4928040;28;97152;-69
2021/01/14 02:51:19;;;;;;;28.20;22.50;;;;;;;2.93;62.17;99917.47;4910663;28;98617;-69
2021/01/14 02:53:47;;;;;;;27.77;22.48;;;;;;;2.92;62.64;99918.34;4897489;28;98836;-69
2021/01/14 02:56:14;;;;;;;27.08;21.85;;;;;;;3.09;61.94;99900.75;4931100;28;96852;-68
2021/01/14 02:58:40;;;;;;;22.90;19.67;;;;;;;3.13;61.39;99893.78;4931481;28;96655;-69
2021/01/14 03:01:06;;;;;;;32.72;22.75;;;;;;;2.91;62.62;99888.31;4930196;28;98451;-69
2021/01/14 03:03:33;;;;;;;26.17;22.60;;;;;;;2.99;61.85;99886.44;4930139;28;98565;-69
2021/01/14 03:05:59;;;;;;;28.75;23.73;;;;;;;2.77;62.53;99891.25;4931639;28;96698;-69
2021/01/14 03:08:25;;;;;;;26.70;21.42;;;;;;;2.76;62.72;99879.25;4931599;28;96525;-68
2021/01/14 03:10:52;;;;;;;26.85;21.90;;;;;;;2.93;62.34;99868.56;4929265;28;98529;-69
2021/01/14 03:13:18;;;;;;;27.67;21.67;;;;;;;3.08;61.72;99850.13;4932629;28;97402;-69
2021/01/14 03:15:45;;;;;;;29.02;20.70;;;;;;;3.03;61.48;99833.09;4929421;28;96602;-68
2021/01/14 03:18:11;;;;;;;25.58;21.48;;;;;;;2.97;61.47;99834.09;4912065;28;96597;-69
2021/01/14 03:20:38;;;;;;;20.45;18.00;;;;;;;2.78;62.73;99832.88;4912411;28;98422;-69
2021/01/14 03:23:04;;;;;;;24.80;20.63;;;;;;;2.68;63.32;99836.56;4929142;28;98642;-69
2021/01/14 03:25:31;;;;;;;25.08;18.13;;;;;;;2.77;63.06;99828.59;4931341;28;96618;-69
2021/01/14 03:27:57;;;;;;;22.40;18.65;;;;;;;2.77;63.30;99826.03;4932693;28;96735;-69
2021/01/14 03:30:23;;;;;;;21.63;16.65;;;;;;;2.84;62.67;99819.88;4930428;28;98738;-69
2021/01/14 03:32:50;;;;;;;26.23;18.83;;;;;;;2.88;61.82;99818.91;4934421;28;98791;-69
2021/01/14 03:35:16;;;;;;;23.17;17.60;;;;;;;2.65;62.26;99826.34;4922839;28;99411;-68
2021/01/14 03:37:43;;;;;;;22.05;17.27;;;;;;;2.82;62.04;99825.06;4915686;28;96783;-69
2021/01/14 03:40:09;;;;;;;22.30;18.40;;;;;;;2.74;61.83;99811.53;4930650;28;99168;-69
2021/01/14 03:42:37;;;;;;;20.20;16.58;;;;;;;2.78;62.27;99814.88;4931857;28;98510;-69
2021/01/14 03:45:07;;;;;;;20.23;16.60;;;;;;;2.93;61.28;99823.91;4915739;28;96900;-69
2021/01/14 03:47:33;;;;;;;19.75;16.92;;;;;;;2.86;61.41;99824.06;4914814;28;96692;-68
2021/01/14 03:50:05;;;;;;;33.75;17.23;;;;;;;2.79;61.36;99829.44;4914158;28;98438;-69
2021/01/14 03:52:31;;;;;;;17.98;15.68;;;;;;;2.80;61.28;99834.53;4927188;28;98891;-69
2021/01/14 03:54:58;;;;;;;16.20;14.38;;;;;;;2.79;61.23;99824.28;4915408;28;96879;-70
2021/01/14 03:57:24;;;;;;;16.10;14.30;;;;;;;2.89;59.96;99823.16;4917465;28;97540;-69
2021/01/14 03:59:50;;;;;;;16.98;14.02;;;;;;;2.82;60.36;99824.19;4916155;28;98949;-70
2021/01/14 04:02:17;;;;;;;16.70;14.70;;;;;;;2.80;60.60;99821.66;4915777;28;98598;-70
2021/01/14 04:04:43;;;;;;;20.83;15.13;;;;;;;2.57;60.84;99829.94;4929410;28;96864;-69
2021/01/14 04:07:13;;;;;;;23.52;17.63;;;;;;;2.06;62.25;99832.81;4935633;28;97336;-70
2021/01/14 04:09:41;;;;;;;21.20;16.27;;;;;;;2.34;62.01;99832.19;4934361;28;98568;-70
2021/01/14 04:12:08;;;;;;;17.27;14.02;;;;;;;2.41;61.24;99827.78;4928234;28;98676;-70
2021/01/14 04:14:34;;;;;;;17.75;14.32;;;;;;;2.40;61.39;99819.22;4915468;28;96741;-70
2021/01/14 04:17:01;;;;;;;21.08;17.20;;;;;;;2.43;60.47;99815.72;4914643;28;96634;-69
2021/01/14 04:19:27;;;;;;;19.85;15.90;;;;;;;2.43;60.39;99815.72;4915596;28;98427;-69
2021/01/14 04:21:53;;;;;;;21.48;16.45;;;;;;;2.44;60.70;99812.25;4916279;28;98461;-69
2021/01/14 04:24:20;;;;;;;18.55;15.38;;;;;;;2.59;60.27;99806.75;4934570;28;96960;-69
2021/01/14 04:26:47;;;;;;;21.05;15.07;;;;;;;2.70;59.72;99809.06;4933022;28;96587;-69
2021/01/14 04:29:13;;;;;;;24.05;14.90;;;;;;;2.66;59.95;99797.97;4917914;28;98563;-69
2021/01/14 04:31:40;;;;;;;23.63;15.63;;;;;;;2.76;59.98;99788.31;4914251;28;98823;-68
2021/01/14 04:34:06;;;;;;;24.38;17.77;;;;;;;2.67;60.28;99786.84;4923708;28;96599;-69
2021/01/14 04:36:33;;;;;;;22.55;16.83;;;;;;;2.76;60.46;99781.44;4922941;28;97161;-68
2021/01/14 04:38:59;;;;;;;21.70;15.25;;;;;;;2.66;60.72;99785.13;4916014;28;98415;-69
2021/01/14 04:41:30;;;;;;;22.95;17.33;;;;;;;2.56;61.32;99791.41;4929896;28;98582;-68
2021/01/14 04:43:56;;;;;;;19.60;16.83;;;;;;;2.44;61.64;99784.81;4924490;28;97199;-68
2021/01/14 04:46:23;;;;;;;20.40;14.60;;;;;;;2.52;61.05;99777.75;4924596;28;99106;-68
2021/01/14 04:48:49;;;;;;;23.27;17.92;;;;;;;2.55;61.53;99763.97;4907958;28;98575;-68
2021/01/14 04:51:19;;;;;;;20.70;15.18;;;;;;;2.70;60.58;99768.72;4933612;28;98637;-68
2021/01/14 04:53:48;;;;;;;18.80;15.27;;;;;;;2.60;60.85;99764.69;4922016;28;97011;-68
2021/01/14 04:56:16;;;;;;;19.92;15.18;;;;;;;2.59;60.47;99778.44;4914224;28;96881;-68
2021/01/14 04:58:45;;;;;;;18.80;14.55;;;;;;;2.57;60.01;99764.78;4913684;28;98558;-69
2021/01/14 05:01:12;;;;;;;17.90;14.90;;;;;;;2.63;60.21;99768.03;4915096;28;98647;-69
2021/01/14 05:03:39;;;;;;;18.77;15.05;;;;;;;2.53;61.17;99758.84;4913507;28;96604;-69
2021/01/14 05:06:06;;;;;;;19.23;15.23;;;;;;;2.58;60.81;99759.59;4923461;28;96609;-68
2021/01/14 05:08:33;;;;;;;19.98;17.65;;;;;;;2.54;61.20;99757.97;4933301;28;98620;-69
2021/01/14 05:11:00;;;;;;;19.00;15.52;;;;;;;2.38;61.73;99753.25;4933673;28;98566;-68
2021/01/14 05:13:30;;;;;;;16.00;14.30;;;;;;;2.41;61.40;99740.31;4935164;28;96426;-68
2021/01/14 05:15:57;;;;;;;17.67;15.13;;;;;;;2.41;61.67;99732.59;4933805;28;96638;-69
2021/01/14 05:18:23;;;;;;;19.20;15.43;;;;;;;2.45;61.25;99722.19;4917662;28;98620;-70
2021/01/14 05:20:50;;;;;;;18.85;15.55;;;;;;;2.49;60.90;99717.81;4914583;28;98546;-70
2021/01/14 05:23:19;;;;;;;17.15;15.32;;;;;;;2.62;60.43;99717.47;4914035;28;96941;-69
2021/01/14 05:25:55;;;;;;;18.88;14.82;;;;;;;2.60;60.73;99726.94;4914464;28;97142;-70
2021/01/14 05:28:23;;;;;;;18.17;15.07;;;;;;;2.48;60.51;99706.66;4913741;28;98909;-70
2021/01/14 05:30:49;;;;;;;21.75;16.83;;;;;;;2.42;61.27;99714.56;4913242;28;98551;-70
2021/01/14 05:33:17;;;;;;;20.85;15.43;;;;;;;2.55;60.65;99718.47;4914455;28;96538;-70
2021/01/14 05:35:47;;;;;;;20.50;16.52;;;;;;;2.24;62.26;99705.56;4915521;28;96614;-70
2021/01/14 05:38:27;;;;;;;21.23;15.52;;;;;;;2.42;61.98;99711.97;4933662;28;98427;-70
2021/01/14 05:41:21;;;;;;;19.90;15.52;;;;;;;2.35;62.29;99707.88;4933771;28;98442;-70
2021/01/14 05:43:54;;;;;;;20.77;16.02;;;;;;;2.46;61.50;99698.16;4932805;28;96831;-70
2021/01/14 05:46:22;;;;;;;22.15;14.82;;;;;;;2.45;61.45;99699.03;4917605;28;99547;-70
2021/01/14 05:48:49;;;;;;;21.33;16.67;;;;;;;2.55;60.75;99691.91;4932219;28;98388;-70
2021/01/14 05:51:25;;;;;;;22.67;17.52;;;;;;;2.38;62.05;99688.94;4932139;28;98478;-70
2021/01/14 05:54:14;;;;;;;22.70;17.50;;;;;;;2.43;61.39;99682.78;4931180;28;97007;-70
2021/01/14 05:56:47;;;;;;;19.13;16.73;;;;;;;2.34;61.86;99672.72;4932217;28;96882;-70
2021/01/14 05:59:18;;;;;;;18.05;15.50;;;;;;;2.56;61.06;99676.44;4932222;28;98605;-69
2021/01/14 06:02:00;;;;;;;22.90;18.20;;;;;;;2.56;61.04;99681.59;4927391;28;98609;-70
2021/01/14 06:04:30;;;;;;;21.25;17.38;;;;;;;2.58;60.96;99692.69;4931869;28;97753;-72
2021/01/14 06:07:04;;;;;;;22.75;18.25;;;;;;;2.47;60.97;99693.84;4929422;28;96602;-73
2021/01/14 06:09:40;;;;;;;19.13;16.95;;;;;;;2.56;60.58;99694.47;4931312;28;97565;-70
2021/01/14 06:12:14;;;;;;;19.40;16.65;;;;;;;2.49;60.78;99692.06;4927695;28;98578;-72
2021/01/14 06:14:41;;;;;;;20.73;17.47;;;;;;;2.51;61.36;99690.31;4925218;28;96714;-72
2021/01/14 06:17:11;;;;;;;20.45;17.33;;;;;;;2.66;60.81;99689.91;4929319;28;96658;-72
2021/01/14 06:19:38;;;;;;;21.63;17.60;;;;;;;2.74;60.07;99682.00;4926893;28;98544;-72
2021/01/14 06:22:04;;;;;;;23.23;17.85;;;;;;;2.81;59.93;99684.34;4926191;28;98476;-68
2021/01/14 06:24:36;;;;;;;21.00;18.17;;;;;;;2.78;59.85;99678.44;4932141;28;96581;-70
2021/01/14 06:27:05;;;;;;;23.40;18.00;;;;;;;2.55;60.90;99677.31;4928477;28;98037;-67
2021/01/14 06:29:41;;;;;;;22.17;19.05;;;;;;;2.57;61.21;99674.72;4927994;28;98552;-71
2021/01/14 06:32:14;;;;;;;25.02;19.48;;;;;;;2.62;60.67;99658.28;4924923;28;97451;-70
2021/01/14 06:34:46;;;;;;;21.58;19.25;;;;;;;2.57;61.18;99664.44;4923485;28;96604;-69
2021/01/14 06:37:14;;;;;;;24.08;20.48;;;;;;;2.62;61.04;99662.59;4924271;28;98302;-69
2021/01/14 06:39:44;;;;;;;20.42;18.15;;;;;;;2.67;60.61;99665.03;4925508;28;98487;-68
2021/01/14 06:42:14;;;;;;;23.67;19.75;;;;;;;2.68;60.79;99661.56;4917664;28;97659;-68
2021/01/14 06:44:40;;;;;;;23.05;17.25;;;;;;;2.74;61.07;99658.81;4926034;28;96694;-69
2021/01/14 06:47:07;;;;;;;27.48;16.98;;;;;;;2.66;61.55;99653.03;4906313;28;97374;-69
2021/01/14 06:49:37;;;;;;;20.33;16.20;;;;;;;2.61;61.53;99660.91;4910306;28;98513;-69
2021/01/14 06:52:09;;;;;;;17.73;14.63;;;;;;;2.63;61.63;99649.66;4925539;28;98591;-69
2021/01/14 06:54:38;;;;;;;18.23;16.20;;;;;;;2.68;61.23;99648.69;4898877;28;96585;-73
2021/01/14 06:57:17;;;;;;;18.50;15.63;;;;;;;2.75;60.74;99651.06;4929998;28;96641;-71
2021/01/14 06:59:44;;;;;;;18.20;15.32;;;;;;;2.82;60.86;99644.88;4927179;28;98698;-69
2021/01/14 07:02:20;;;;;;;19.85;15.02;;;;;;;2.75;60.88;99647.63;4926107;28;98744;-69
2021/01/14 07:04:53;;;;;;;20.13;15.90;;;;;;;2.87;60.95;99652.44;4926579;28;96964;-68
2021/01/14 07:07:26;;;;;;;29.60;21.07;;;;;;;2.94;60.50;99655.72;4930208;28;98604;-70
2021/01/14 07:10:15;;;;;;;23.38;20.85;;;;;;;2.95;60.72;99659.97;4928245;28;98725;-70
2021/01/14 07:12:43;;;;;;;25.83;20.83;;;;;;;2.86;61.13;99667.03;4930592;28;98441;-70
2021/01/14 07:15:16;;;;;;;26.73;19.33;;;;;;;2.74;60.97;99661.41;4931053;28;97189;-71
2021/01/14 07:17:45;;;;;;;27.25;22.25;;;;;;;2.86;60.56;99681.66;4930499;28;96612;-68
2021/01/14 07:20:13;;;;;;;25.60;20.67;;;;;;;2.79;61.91;99690.44;4933977;28;98540;-69
2021/01/14 07:22:42;;;;;;;27.83;21.60;;;;;;;2.81;62.44;99696.38;4933747;28;98653;-70
2021/01/14 07:25:09;;;;;;;26.55;22.40;;;;;;;2.84;62.82;99704.03;4930438;28;96595;-70
2021/01/14 07:27:36;;;;;;;26.45;22.95;;;;;;;2.95;62.34;99714.88;4933673;28;96669;-70
2021/01/14 07:30:04;;;;;;;28.17;23.33;;;;;;;3.04;61.99;99714.63;4929843;28;98767;-70
2021/01/14 07:32:51;;;;;;;22.80;20.30;;;;;;;3.10;62.10;99717.03;4934184;28;98870;-70
2021/01/14 07:35:37;;;;;;;19.40;16.63;;;;;;;3.25;61.52;99722.63;4934487;28;96676;-70
2021/01/14 07:38:04;;;;;;;21.38;17.17;;;;;;;3.44;61.23;99741.81;4933846;28;96674;-71
2021/01/14 07:40:31;;;;;;;25.23;17.08;;;;;;;3.68;60.45;99745.44;4930331;28;98524;-69
2021/01/14 07:42:58;;;;;;;19.08;17.08;;;;;;;4.05;60.03;99757.19;4930480;28;98567;-69
2021/01/14 07:45:24;;;;;;;23.52;20.02;;;;;;;4.42;59.05;99754.28;4927064;28;97143;-69
2021/01/14 07:47:51;;;;;;;28.00;18.17;;;;;;;4.86;57.78;99751.97;4931919;28;96666;-70
2021/01/14 07:50:21;;;;;;;21.75;16.80;;;;;;;5.16;57.14;99758.63;4926879;28;98618;-75
2021/01/14 07:52:49;;;;;;;21.25;17.10;;;;;;;5.51;56.17;99766.84;4932359;28;98423;-75
2021/01/14 07:55:28;;;;;;;18.63;16.63;;;;;;;5.76;54.91;99766.78;4929522;28;97204;-75
2021/01/14 07:58:03;;;;;;;22.33;17.73;;;;;;;6.09;54.02;99764.66;4934701;28;96800;-75
2021/01/14 08:00:30;;;;;;;23.38;18.35;;;;;;;6.25;53.43;99762.31;4932116;28;98462;-75
2021/01/14 08:03:13;;;;;;;19.50;16.00;;;;;;;6.58;52.32;99770.47;4930761;28;98558;-72
2021/01/14 08:05:40;;;;;;;19.35;15.23;;;;;;;6.73;51.21;99759.47;4929148;28;96880;-66
2021/01/14 08:08:26;;;;;;;20.65;16.42;;;;;;;6.92;51.15;99769.03;4932667;28;97017;-66
2021/01/14 08:11:09;;;;;;;26.75;15.95;;;;;;;7.18;50.20;99757.56;4930517;28;98656;-70
2021/01/14 08:14:00;;;;;;;19.80;15.13;;;;;;;7.42;49.80;99763.41;4930801;28;98691;-72
2021/01/14 08:16:37;;;;;;;18.05;14.48;;;;;;;7.62;49.20;99776.34;4930845;28;97121;-70
2021/01/14 08:19:22;;;;;;;19.15;15.02;;;;;;;7.77;49.21;99775.63;4932640;28;96867;-72
2021/01/14 08:22:01;;;;;;;24.33;19.08;;;;;;;8.00;47.62;99789.31;4931870;28;98447;-71
2021/01/14 08:24:50;;;;;;;23.02;20.05;;;;;;;8.16;47.62;99798.06;4929377;28;98590;-70
2021/01/14 08:27:22;;;;;;;21.30;18.85;;;;;;;8.12;48.27;99786.13;4921107;28;96860;-69
2021/01/14 08:29:54;;;;;;;28.95;21.27;;;;;;;8.23;47.43;99788.22;4919412;28;96958;-68
2021/01/14 08:32:26;;;;;;;22.25;18.63;;;;;;;8.20;48.20;99794.38;4929979;28;98481;-68
2021/01/14 08:34:54;;;;;;;24.27;20.02;;;;;;;8.19;48.58;99795.28;4934138;28;98475;-68
2021/01/14 08:37:42;;;;;;;23.23;19.95;;;;;;;8.30;48.50;99797.38;4932869;28;97153;-68
2021/01/14 08:40:13;;;;;;;30.27;20.75;;;;;;;8.31;48.29;99806.84;4935193;28;96896;-68
2021/01/14 08:42:40;;;;;;;27.67;20.65;;;;;;;8.23;48.63;99796.00;4914068;28;98666;-71
2021/01/14 08:45:08;;;;;;;25.42;21.73;;;;;;;8.29;48.81;99796.53;4918121;28;98506;-71
2021/01/14 08:47:53;;;;;;;29.10;24.33;;;;;;;8.29;48.99;99791.34;4927628;28;96927;-71
2021/01/14 08:50:40;;;;;;;34.92;23.33;;;;;;;8.26;49.53;99791.53;4923453;28;100437;-70
2021/01/14 08:53:07;;;;;;;29.15;23.85;;;;;;;8.13;50.13;99790.41;4929257;28;98729;-69
2021/01/14 08:55:34;;;;;;;29.45;24.30;;;;;;;8.01;50.87;99785.78;4932534;28;98385;-69
2021/01/14 08:58:02;;;;;;;31.98;26.30;;;;;;;7.75;51.79;99795.63;4927324;28;96913;-72
2021/01/14 09:00:31;;;;;;;30.02;26.60;;;;;;;7.50;52.69;99792.44;4915614;28;96761;-71
2021/01/14 09:02:58;;;;;;;34.97;30.08;;;;;;;7.34;53.56;99793.09;4951119;28;98504;-69
2021/01/14 09:05:24;;;;;;;37.47;30.55;;;;;;;7.30;53.98;99785.56;4944078;28;98545;-72
2021/01/14 09:08:09;;;;;;;35.97;30.67;;;;;;;7.25;54.28;99801.31;4932752;28;96776;-74
2021/01/14 09:10:42;;;;;;;39.83;30.27;;;;;;;7.18;54.86;99805.06;4929920;28;96554;-72
2021/01/14 09:13:09;;;;;;;36.72;30.42;;;;;;;7.17;55.18;99811.16;4917786;28;98599;-69
2021/01/14 09:15:36;;;;;;;35.28;28.42;;;;;;;7.14;55.95;99811.31;4917616;28;98520;-70
2021/01/14 09:18:06;;;;;;;31.50;27.55;;;;;;;7.07;55.96;99818.47;4927930;28;96950;-71
2021/01/14 09:20:33;;;;;;;37.20;30.00;;;;;;;7.12;55.38;99828.66;4929030;28;96880;-70
2021/01/14 09:23:22;;;;;;;39.30;30.75;;;;;;;7.17;54.98;99837.06;4930929;28;98468;-70
2021/01/14 09:25:55;;;;;;;33.63;29.95;;;;;;;7.05;57.08;99832.41;4934368;28;98640;-69
2021/01/14 09:28:23;;;;;;;39.75;27.70;;;;;;;6.91;58.61;99832.13;4930525;28;98685;-68
2021/01/14 09:31:03;;;;;;;31.30;25.55;;;;;;;6.22;61.55;99834.91;4917910;28;97088;-71
2021/01/14 09:33:33;;;;;;;34.13;25.73;;;;;;;6.39;61.79;99832.53;4952132;28;98473;-66
2021/01/14 09:36:23;;;;;;;37.20;27.58;;;;;;;6.27;61.39;99833.81;4928434;28;98632;-70
2021/01/14 09:38:56;;;;;;;33.33;27.60;;;;;;;6.41;61.22;99835.03;4920840;28;96978;-72
2021/01/14 09:41:30;;;;;;;31.85;26.60;;;;;;;6.15;62.36;99831.72;4919875;28;97261;-70
2021/01/14 09:44:00;;;;;;;42.03;27.20;;;;;;;6.42;61.58;99836.72;4932070;28;98485;-72
2021/01/14 09:46:28;;;;;;;33.42;29.85;;;;;;;6.49;61.25;99828.63;4929170;28;98421;-69
2021/01/14 09:49:05;;;;;;;40.05;30.38;;;;;;;6.66;60.16;99825.41;4923412;28;96748;-69
2021/01/14 09:51:32;;;;;;;32.35;28.52;;;;;;;6.69;60.52;99820.06;4916045;28;96627;-69
2021/01/14 09:54:00;;;;;;;37.58;29.67;;;;;;;6.79;60.14;99821.38;4913644;28;98578;-70
2021/01/14 09:56:33;;;;;;;36.75;27.60;;;;;;;6.89;59.93;99818.41;4912830;28;98448;-71
2021/01/14 09:59:12;;;;;;;34.53;27.67;;;;;;;6.90;59.70;99812.31;4912086;28;96869;-72
2021/01/14 10:01:41;;;;;;;38.75;32.45;;;;;;;6.98;60.15;99812.84;4928141;28;100136;-70
2021/01/14 10:04:26;;;;;;;39.00;30.02;;;;;;;7.05;59.70;99806.50;4930760;28;98617;-71
2021/01/14 10:07:03;;;;;;;37.75;31.77;;;;;;;7.09;59.59;99789.91;4926080;28;98607;-73
2021/01/14 10:09:29;;;;;;;37.55;29.23;;;;;;;6.97;60.56;99788.66;4930533;28;96876;-70
2021/01/14 10:11:55;;;;;;;38.42;30.52;;;;;;;6.96;62.01;99793.91;4914111;28;96679;-71
2021/01/14 10:14:22;;;;;;;39.28;29.60;;;;;;;6.71;63.54;99792.38;4931538;28;98555;-73
2021/01/14 10:16:48;;;;;;;36.38;29.25;;;;;;;6.77;63.30;99788.69;4932164;28;98540;-69
2021/01/14 10:19:18;;;;;;;41.85;31.13;;;;;;;6.74;63.11;99800.00;4933305;28;96510;-73
2021/01/14 10:21:46;;;;;;;41.78;32.90;;;;;;;6.95;62.50;99800.03;4932226;28;96557;-72
2021/01/14 10:24:28;;;;;;;35.63;30.90;;;;;;;7.06;61.96;99790.88;4931443;28;98579;-69
2021/01/14 10:26:54;;;;;;;36.15;30.60;;;;;;;7.11;62.25;99795.03;4926673;28;98759;-70
2021/01/14 10:29:31;;;;;;;50.45;35.50;;;;;;;6.90;64.09;99795.03;4924710;28;96880;-70
2021/01/14 10:32:02;;;;;;;50.20;31.45;;;;;;;7.00;63.42;99795.47;4936253;28;97027;-70
2021/01/14 10:34:51;;;;;;;56.70;33.40;;;;;;;7.17;62.52;99795.59;4921073;28;98976;-70
2021/01/14 10:37:27;;;;;;;40.38;30.73;;;;;;;7.28;61.91;99784.75;4930861;28;98569;-70
2021/01/14 10:39:55;;;;;;;40.65;31.27;;;;;;;7.31;62.15;99788.06;4913134;28;96877;-71
2021/01/14 10:42:39;;;;;;;35.72;31.20;;;;;;;7.18;63.71;99802.47;4919021;28;96629;-71
2021/01/14 10:45:11;;;;;;;38.75;32.90;;;;;;;7.27;62.70;99796.03;4919976;28;98539;-70
2021/01/14 10:47:41;;;;;;;43.15;33.42;;;;;;;7.26;61.97;99805.56;4920027;28;98591;-71
2021/01/14 10:50:25;;;;;;;44.65;33.55;;;;;;;7.39;61.32;99815.41;4914907;28;96940;-71
2021/01/14 10:52:59;;;;;;;42.80;33.03;;;;;;;7.37;62.15;99812.06;4914907;28;96784;-71
2021/01/14 10:55:25;;;;;;;39.93;34.97;;;;;;;7.51;61.70;99807.06;4931096;28;98422;-74
2021/01/14 10:58:01;;;;;;;48.72;32.67;;;;;;;7.55;60.93;99806.03;4916437;28;98559;-73
2021/01/14 11:00:37;;;;;;;39.92;32.88;;;;;;;7.56;59.98;99818.09;4915065;28;96652;-75
2021/01/14 11:03:10;;;;;;;39.15;30.63;;;;;;;7.53;58.07;99821.69;4923595;28;96999;-72
2021/01/14 11:05:50;;;;;;;36.67;30.05;;;;;;;7.64;57.74;99816.00;4924906;28;98608;-73
2021/01/14 11:08:30;;;;;;;35.38;27.50;;;;;;;7.68;56.32;99822.75;4916638;28;98670;-72
2021/01/14 11:11:01;;;;;;;29.80;25.63;;;;;;;7.72;55.12;99826.03;4920448;28;96907;-75
2021/01/14 11:13:43;;;;;;;33.53;24.13;;;;;;;7.74;55.11;99822.47;4933979;28;97567;-75
2021/01/14 11:16:11;;;;;;;34.85;24.33;;;;;;;7.78;54.33;99824.03;4935053;28;98720;-81
2021/01/14 11:18:41;;;;;;;30.00;25.65;;;;;;;7.77;54.09;99819.72;4924464;28;98467;-76
2021/01/14 11:21:08;;;;;;;29.77;22.55;;;;;;;7.84;54.44;99817.72;4915306;28;96897;-77
2021/01/14 11:23:34;;;;;;;30.48;26.00;;;;;;;7.84;54.60;99803.00;4912212;28;97651;-76
2021/01/14 11:26:04;;;;;;;30.35;24.00;;;;;;;7.85;54.63;99798.63;4913871;28;98658;-73
2021/01/14 11:28:41;;;;;;;25.55;22.80;;;;;;;7.92;54.61;99801.78;4913761;28;98576;-73
2021/01/14 11:31:08;;;;;;;29.33;24.27;;;;;;;7.98;55.11;99789.34;4927445;28;96794;-73
2021/01/14 11:33:34;;;;;;;29.95;23.95;;;;;;;8.01;54.85;99803.97;4951727;28;96712;-74
2021/01/14 11:36:00;;;;;;;24.48;21.42;;;;;;;8.03;54.63;99791.75;4925052;28;98650;-74
2021/01/14 11:38:27;;;;;;;26.50;23.40;;;;;;;8.04;54.51;99788.22;4914267;28;98568;-73
2021/01/14 11:40:53;;;;;;;28.52;22.25;;;;;;;8.08;54.73;99787.19;4912898;28;98293;-76